Time;durP1;ratioP1;P1;durP2;ratioP2;P2;SDS_P1;SDS_P2;PMS_P1;PMS_P2;Temp;Humidity;BMP_temperature;BMP_pressure;BME280_temperature;BME280_humidity;BME280_pressure;Samples;Min_cycle;Max_cycle;Signal;HPM_P1;HPM_P2
2023/01/20 00:01:30;;;;;;;3.97;1.35;;;1.30;99.90;;;;;;4899564;29;20082;-94
2023/01/20 00:03:58;;;;;;;5.68;1.45;;;1.40;99.90;;;;;;4900801;29;20087;-93
2023/01/20 00:06:27;;;;;;;4.30;1.50;;;1.40;99.90;;;;;;4884133;29;20104;-93
2023/01/20 00:08:59;;;;;;;3.33;1.48;;;1.30;99.90;;;;;;4892970;29;20067;-93
2023/01/20 00:11:31;;;;;;;5.32;1.40;;;1.40;99.90;;;;;;4882337;29;20041;-94
2023/01/20 00:14:15;;;;;;;5.47;1.40;;;1.40;99.90;;;;;;4891683;29;20045;-93
2023/01/20 00:16:43;;;;;;;5.90;1.65;;;1.30;99.90;;;;;;4900289;29;20037;-93
2023/01/20 00:19:13;;;;;;;5.65;1.17;;;1.30;99.90;;;;;;4893542;29;20079;-94
2023/01/20 00:21:39;;;;;;;3.88;1.40;;;1.30;99.90;;;;;;4880147;29;20133;-93
2023/01/20 00:24:08;;;;;;;4.57;1.40;;;1.30;99.90;;;;;;4881503;29;20053;-93
2023/01/20 00:29:09;;;;;;;3.30;1.17;;;1.30;99.90;;;;;;4905086;23;20100;-93
2023/01/20 00:31:35;;;;;;;3.80;1.60;;;1.30;99.90;;;;;;4894942;29;20485;-93
2023/01/20 00:34:10;;;;;;;3.08;1.48;;;1.30;99.90;;;;;;4869540;29;20049;-93
2023/01/20 00:36:39;;;;;;;4.90;1.70;;;1.30;99.90;;;;;;4889322;29;20067;-93
2023/01/20 00:39:05;;;;;;;4.38;1.90;;;1.30;99.90;;;;;;4898469;29;20413;-93
2023/01/20 00:41:39;;;;;;;3.80;1.60;;;1.30;99.90;;;;;;4899534;29;20036;-93
2023/01/20 00:44:07;;;;;;;3.90;1.63;;;1.30;99.90;;;;;;4899339;29;20044;-92
2023/01/20 00:46:39;;;;;;;4.82;1.95;;;1.30;99.90;;;;;;4899092;29;20074;-93
2023/01/20 00:49:11;;;;;;;5.80;2.70;;;1.20;99.90;;;;;;4887865;29;20072;-93
2023/01/20 00:51:40;;;;;;;7.25;3.28;;;1.30;99.90;;;;;;4899713;29;20091;-93
2023/01/20 00:54:05;;;;;;;6.20;3.25;;;1.30;99.90;;;;;;4898525;29;20108;-94
2023/01/20 00:56:40;;;;;;;5.90;2.90;;;1.30;99.90;;;;;;4883348;29;20436;-93
2023/01/20 00:59:09;;;;;;;5.00;2.65;;;1.20;99.90;;;;;;4898579;29;20049;-93
2023/01/20 01:01:35;;;;;;;6.65;4.10;;;1.30;99.90;;;;;;4899717;29;20501;-93
2023/01/20 01:04:00;;;;;;;8.75;3.20;;;1.30;99.90;;;;;;4887134;29;20124;-92
2023/01/20 01:06:26;;;;;;;6.57;3.95;;;1.30;99.90;;;;;;4883447;29;20392;-93
2023/01/20 01:08:51;;;;;;;6.60;4.03;;;1.20;99.90;;;;;;4899807;29;20033;-93
2023/01/20 01:11:18;;;;;;;9.48;5.13;;;1.30;99.90;;;;;;4891623;29;20508;-94
2023/01/20 01:13:44;;;;;;;9.70;5.63;;;1.30;99.90;;;;;;4891962;29;20055;-93
2023/01/20 01:16:12;;;;;;;8.65;5.45;;;1.30;99.90;;;;;;4901667;29;20040;-94
2023/01/20 01:18:38;;;;;;;7.28;4.45;;;1.30;99.90;;;;;;4891601;29;20044;-93
2023/01/20 01:21:09;;;;;;;8.50;4.97;;;1.30;99.90;;;;;;4891921;29;20078;-93
2023/01/20 01:23:42;;;;;;;7.80;5.07;;;1.30;99.90;;;;;;4889296;29;20040;-93
2023/01/20 01:26:08;;;;;;;14.70;8.93;;;1.20;99.90;;;;;;4903169;29;20044;-94
2023/01/20 01:28:34;;;;;;;10.48;6.80;;;1.30;99.90;;;;;;4894305;29;20052;-94
2023/01/20 01:31:01;;;;;;;10.20;7.05;;;1.30;99.90;;;;;;4876877;29;20055;-94
2023/01/20 01:33:34;;;;;;;12.05;7.82;;;1.30;99.90;;;;;;4886006;29;20053;-94
2023/01/20 01:36:01;;;;;;;14.60;9.10;;;1.30;99.90;;;;;;4903940;29;20055;-94
2023/01/20 01:38:34;;;;;;;9.60;6.13;;;1.30;99.90;;;;;;4902965;29;20388;-94
2023/01/20 01:41:06;;;;;;;9.00;6.18;;;1.30;99.90;;;;;;4903125;29;20048;-93
2023/01/20 01:43:34;;;;;;;11.48;7.78;;;1.30;99.90;;;;;;4891417;29;20082;-93
2023/01/20 01:46:01;;;;;;;10.38;7.47;;;1.30;99.90;;;;;;4875446;29;20112;-94
2023/01/20 01:48:38;;;;;;;13.00;6.97;;;1.30;99.90;;;;;;4887949;29;20441;-93
2023/01/20 01:51:30;;;;;;;;;;;;;;;;;;;;;
2023/01/20 01:54:11;;;;;;;13.45;8.13;;;1.30;99.90;;;;;;4900336;29;20071;-93
2023/01/20 01:56:38;;;;;;;10.27;7.28;;;1.40;99.90;;;;;;4887429;29;20051;-93
2023/01/20 01:59:04;;;;;;;10.52;7.25;;;1.40;99.90;;;;;;4903062;29;20045;-94
2023/01/20 02:01:33;;;;;;;10.85;7.00;;;1.30;99.90;;;;;;4900807;29;20051;-94
2023/01/20 02:04:15;;;;;;;10.52;6.72;;;1.40;99.90;;;;;;4902787;29;20102;-94
2023/01/20 02:06:45;;;;;;;10.77;6.57;;;1.30;99.90;;;;;;4902975;29;20066;-94
2023/01/20 02:09:17;;;;;;;10.10;6.93;;;1.40;99.90;;;;;;4887723;29;20045;-93
2023/01/20 02:12:05;;;;;;;12.23;7.53;;;1.40;99.90;;;;;;4895490;29;20045;-93
2023/01/20 02:14:40;;;;;;;10.07;7.18;;;1.50;99.90;;;;;;4901125;29;20048;-94
2023/01/20 02:17:15;;;;;;;10.60;7.38;;;1.40;99.90;;;;;;4900397;29;20045;-94
2023/01/20 02:20:06;;;;;;;10.52;7.60;;;1.40;99.90;;;;;;4901698;29;20056;-94
2023/01/20 02:22:44;;;;;;;9.82;7.10;;;1.40;99.90;;;;;;4901066;29;20045;-94
2023/01/20 02:25:43;;;;;;;11.93;7.13;;;1.40;99.90;;;;;;4910519;23;20056;-94
2023/01/20 02:28:36;;;;;;;9.10;6.65;;;1.40;99.90;;;;;;4896375;29;20053;-94
2023/01/20 02:31:35;;;;;;;10.30;8.10;;;1.40;99.90;;;;;;4891396;29;20053;-94
2023/01/20 02:34:18;;;;;;;11.75;7.10;;;1.40;99.90;;;;;;4887400;29;20060;-93
2023/01/20 02:37:01;;;;;;;10.38;7.30;;;1.40;99.90;;;;;;4896877;29;20045;-93
2023/01/20 02:39:49;;;;;;;10.38;6.85;;;1.40;99.90;;;;;;4881776;29;20562;-94
2023/01/20 02:42:44;;;;;;;10.10;7.13;;;1.40;99.90;;;;;;4884204;29;20115;-93
2023/01/20 02:45:14;;;;;;;10.65;7.78;;;1.40;99.90;;;;;;4901221;29;20485;-94
2023/01/20 02:48:04;;;;;;;10.73;6.80;;;1.50;99.90;;;;;;4893202;29;20127;-93
2023/01/20 02:50:59;;;;;;;10.68;7.75;;;1.50;99.90;;;;;;4888086;29;20052;-94
2023/01/20 02:53:36;;;;;;;11.07;7.93;;;1.40;99.90;;;;;;4888568;29;20529;-93
2023/01/20 02:56:03;;;;;;;11.90;7.57;;;1.40;99.90;;;;;;4901969;29;20470;-93
2023/01/20 02:59:04;;;;;;;11.23;7.53;;;1.50;99.90;;;;;;4894507;29;20123;-94
2023/01/20 03:01:47;;;;;;;11.98;8.30;;;1.50;99.90;;;;;;4849903;29;20057;-93
2023/01/20 03:04:17;;;;;;;12.25;8.20;;;1.50;99.90;;;;;;4881628;29;20084;-94
2023/01/20 03:06:51;;;;;;;11.30;8.30;;;1.50;99.90;;;;;;4895933;29;20045;-93
2023/01/20 03:09:32;;;;;;;;;;;1.50;99.90;;;;;;4881898;29;20049;-94
2023/01/20 03:12:13;;;;;;;12.88;8.52;;;1.40;99.90;;;;;;4888016;29;19928;-94
2023/01/20 03:14:42;;;;;;;12.10;9.25;;;1.40;99.90;;;;;;4896814;29;20383;-93
2023/01/20 03:17:13;;;;;;;12.88;9.25;;;1.40;99.90;;;;;;4882233;29;21640;-94
2023/01/20 03:19:39;;;;;;;13.57;9.60;;;1.50;99.90;;;;;;4892849;29;20055;-94
2023/01/20 03:22:07;;;;;;;15.45;11.68;;;1.50;99.90;;;;;;4885827;29;20064;-93
2023/01/20 03:24:35;;;;;;;14.20;10.63;;;1.40;99.90;;;;;;4881423;29;20065;-94
2023/01/20 03:27:00;;;;;;;13.93;10.30;;;1.40;99.90;;;;;;4882884;29;20143;-94
2023/01/20 03:29:44;;;;;;;14.32;10.68;;;1.40;99.90;;;;;;4881189;29;20053;-94
2023/01/20 03:32:11;;;;;;;16.38;11.57;;;1.40;99.90;;;;;;4882927;29;20398;-94
2023/01/20 03:34:39;;;;;;;18.80;12.57;;;1.40;99.90;;;;;;4883014;29;20045;-94
2023/01/20 03:37:15;;;;;;;18.05;12.88;;;1.40;99.90;;;;;;4881798;29;20080;-94
2023/01/20 03:39:57;;;;;;;20.42;13.13;;;1.40;99.90;;;;;;4881448;29;20049;-94
2023/01/20 03:42:51;;;;;;;14.40;10.57;;;1.40;99.90;;;;;;4881937;29;20045;-94
2023/01/20 03:45:41;;;;;;;17.55;12.25;;;1.40;99.90;;;;;;4881430;29;20084;-94
2023/01/20 03:48:28;;;;;;;19.92;12.80;;;1.40;99.90;;;;;;4881368;29;20172;-94
2023/01/20 03:51:32;;;;;;;16.75;11.68;;;1.40;99.90;;;;;;4894795;29;20048;-93
2023/01/20 03:54:11;;;;;;;17.08;11.48;;;1.40;99.90;;;;;;4899893;29;20466;-94
2023/01/20 03:57:03;;;;;;;16.67;11.55;;;1.40;99.90;;;;;;4900862;29;20041;-94
2023/01/20 03:59:34;;;;;;;15.52;11.20;;;1.40;99.90;;;;;;4900365;29;20053;-93
2023/01/20 04:02:07;;;;;;;18.27;11.70;;;1.30;99.90;;;;;;4899617;29;20100;-93
2023/01/20 04:04:36;;;;;;;16.02;11.55;;;1.40;99.90;;;;;;4887247;29;20049;-94
2023/01/20 04:07:11;;;;;;;16.88;11.60;;;1.40;99.90;;;;;;4882213;29;20057;-94
2023/01/20 04:09:42;;;;;;;18.23;11.18;;;1.40;99.90;;;;;;4881005;29;20136;-94
2023/01/20 04:12:08;;;;;;;18.27;12.77;;;1.40;99.90;;;;;;4880832;29;20081;-94
2023/01/20 04:14:35;;;;;;;18.67;12.90;;;1.40;99.90;;;;;;4882820;29;20049;-94
2023/01/20 04:17:03;;;;;;;17.55;12.38;;;1.40;99.90;;;;;;4883140;29;20044;-93
2023/01/20 04:19:30;;;;;;;20.88;13.30;;;1.40;99.90;;;;;;4881305;29;20117;-94
2023/01/20 04:22:13;;;;;;;20.20;12.80;;;1.40;99.90;;;;;;4880505;29;20045;-94
2023/01/20 04:24:49;;;;;;;20.40;14.27;;;1.40;99.90;;;;;;4880494;29;20064;-94
2023/01/20 04:27:14;;;;;;;20.70;13.45;;;1.40;99.90;;;;;;4879924;29;20057;-95
2023/01/20 04:29:40;;;;;;;18.60;13.30;;;1.40;99.90;;;;;;4899295;29;20095;-94
2023/01/20 04:32:15;;;;;;;18.60;12.32;;;1.40;99.90;;;;;;4889921;29;20414;-94
2023/01/20 04:34:40;;;;;;;19.90;13.80;;;1.40;99.90;;;;;;4895525;29;20087;-94
2023/01/20 04:37:09;;;;;;;21.42;13.98;;;1.40;99.90;;;;;;4891766;29;20080;-94
2023/01/20 04:39:40;;;;;;;21.38;14.07;;;1.30;99.90;;;;;;4881693;29;20076;-94
2023/01/20 04:42:12;;;;;;;19.92;13.85;;;1.40;99.90;;;;;;4897011;29;20041;-94
2023/01/20 04:44:38;;;;;;;23.55;14.05;;;1.40;99.90;;;;;;4899244;29;20105;-94
2023/01/20 04:47:06;;;;;;;20.58;14.02;;;1.40;99.90;;;;;;4900707;29;20053;-95
2023/01/20 04:49:32;;;;;;;21.52;14.32;;;1.40;99.90;;;;;;4889983;29;20056;-94
2023/01/20 04:51:58;;;;;;;25.45;14.57;;;1.40;99.90;;;;;;4890067;29;20123;-94
2023/01/20 04:54:30;;;;;;;22.45;15.00;;;1.40;99.90;;;;;;4891848;29;20080;-95
2023/01/20 04:57:01;;;;;;;23.23;14.73;;;1.40;99.90;;;;;;4888148;29;20513;-95
2023/01/20 04:59:26;;;;;;;22.40;13.88;;;1.40;99.90;;;;;;4891599;29;20045;-95
2023/01/20 05:01:54;;;;;;;22.55;14.75;;;1.40;99.90;;;;;;4880609;29;20131;-95
2023/01/20 05:04:28;;;;;;;23.05;15.13;;;1.40;99.90;;;;;;4889447;29;20136;-94
2023/01/20 05:07:10;;;;;;;23.27;15.30;;;1.30;99.90;;;;;;4896265;29;20045;-94
2023/01/20 05:09:39;;;;;;;21.77;13.43;;;1.40;99.90;;;;;;4864914;29;20053;-95
2023/01/20 05:12:07;;;;;;;23.55;13.60;;;1.30;99.90;;;;;;4898354;29;20053;-94
2023/01/20 05:14:33;;;;;;;22.58;15.15;;;1.40;99.90;;;;;;4891705;29;20161;-95
2023/01/20 05:17:14;;;;;;;21.60;14.27;;;1.40;99.90;;;;;;4880363;29;20076;-93
2023/01/20 05:26:59;;;;;;;25.58;15.50;;;1.40;99.90;;;;;;4898008;29;20046;-89
2023/01/20 05:29:25;;;;;;;21.80;14.40;;;1.40;99.90;;;;;;4877849;29;20047;-88
2023/01/20 05:35:14;;;;;;;23.15;15.23;;;1.40;99.90;;;;;;4884624;29;20401;-88
2023/01/20 05:37:43;;;;;;;19.95;13.98;;;1.40;99.90;;;;;;4884565;29;20080;-88
2023/01/20 05:40:09;;;;;;;20.88;14.30;;;1.40;99.90;;;;;;4883405;29;20053;-88
2023/01/20 05:45:29;;;;;;;22.10;15.52;;;1.40;99.90;;;;;;4855886;23;20457;-94
2023/01/20 05:47:56;;;;;;;24.25;15.40;;;1.40;99.90;;;;;;4828467;29;20054;-94
2023/01/20 05:50:26;;;;;;;23.15;15.40;;;1.40;99.90;;;;;;4844317;29;20114;-95
2023/01/20 05:52:52;;;;;;;24.85;16.10;;;1.40;99.90;;;;;;4827448;29;20060;-94
2023/01/20 05:55:24;;;;;;;24.73;16.08;;;1.40;99.90;;;;;;4844285;29;20132;-94
2023/01/20 05:57:49;;;;;;;24.00;15.75;;;1.40;99.90;;;;;;4828317;29;20054;-94
2023/01/20 06:00:18;;;;;;;22.60;14.90;;;1.50;99.90;;;;;;4827361;29;20058;-94
2023/01/20 06:02:53;;;;;;;21.08;15.00;;;1.40;99.90;;;;;;4847236;29;20092;-93
2023/01/20 06:05:28;;;;;;;23.20;14.73;;;1.50;99.90;;;;;;4830533;29;20547;-95
2023/01/20 06:08:08;;;;;;;24.98;14.93;;;1.50;99.90;;;;;;4847704;29;20552;-94
2023/01/20 06:10:34;;;;;;;20.88;14.20;;;1.50;99.90;;;;;;4847573;29;20081;-94
2023/01/20 06:12:59;;;;;;;24.85;16.23;;;1.50;99.90;;;;;;4830660;29;20077;-94
2023/01/20 06:15:28;;;;;;;21.02;14.82;;;1.50;99.90;;;;;;4800174;29;20062;-94
2023/01/20 06:17:54;;;;;;;23.85;15.45;;;1.50;99.90;;;;;;4830852;29;20467;-94
2023/01/20 06:20:23;;;;;;;23.30;15.40;;;1.50;99.90;;;;;;4830231;29;20502;-94
2023/01/20 06:22:53;;;;;;;23.15;15.35;;;1.50;99.90;;;;;;4847050;29;20129;-93
2023/01/20 06:25:30;;;;;;;21.20;14.65;;;1.60;99.90;;;;;;4847123;29;20042;-94
2023/01/20 06:28:04;;;;;;;24.10;15.48;;;1.60;99.90;;;;;;4829978;29;20111;-93
2023/01/20 06:30:37;;;;;;;25.42;16.27;;;1.60;99.90;;;;;;4847242;29;20042;-93
2023/01/20 06:33:07;;;;;;;26.93;16.57;;;1.60;99.90;;;;;;4846712;29;20049;-94
2023/01/20 06:35:56;;;;;;;26.40;16.52;;;1.50;99.90;;;;;;4806822;29;20116;-94
2023/01/20 06:38:35;;;;;;;23.00;15.35;;;1.50;99.90;;;;;;4847361;29;20054;-94
2023/01/20 06:41:17;;;;;;;23.20;15.10;;;1.50;99.90;;;;;;4848049;29;20487;-95
2023/01/20 06:43:46;;;;;;;23.67;16.25;;;1.50;99.90;;;;;;4847622;29;20128;-94
2023/01/20 06:46:13;;;;;;;24.20;15.73;;;1.50;99.90;;;;;;4929085;23;20065;-94
2023/01/20 06:48:43;;;;;;;28.75;17.40;;;1.50;99.90;;;;;;4867781;29;20048;-94
2023/01/20 06:51:34;;;;;;;29.65;18.92;;;1.50;99.90;;;;;;4883136;29;20071;-94
2023/01/20 06:54:14;;;;;;;30.85;17.33;;;1.50;99.90;;;;;;4864661;29;20053;-94
2023/01/20 06:57:05;;;;;;;27.50;16.17;;;1.50;99.90;;;;;;4881869;29;20048;-94
2023/01/20 06:59:31;;;;;;;25.50;15.30;;;1.50;99.90;;;;;;4880149;29;20041;-94
2023/01/20 07:01:59;;;;;;;25.92;15.88;;;1.50;99.90;;;;;;4883464;29;20109;-95
2023/01/20 07:04:25;;;;;;;25.58;17.25;;;1.50;99.90;;;;;;4883289;29;20052;-95
2023/01/20 07:07:39;;;;;;;29.30;18.17;;;1.50;99.90;;;;;;4900680;23;20041;-94
2023/01/20 07:10:09;;;;;;;32.50;19.80;;;1.50;99.90;;;;;;4868392;29;20487;-94
2023/01/20 07:12:47;;;;;;;27.38;17.25;;;1.50;99.90;;;;;;4866485;29;20136;-94
2023/01/20 07:15:12;;;;;;;28.52;18.17;;;1.50;99.90;;;;;;4867605;29;20163;-94
2023/01/20 07:17:41;;;;;;;26.77;17.45;;;1.50;99.90;;;;;;4867160;29;20045;-94
2023/01/20 07:20:08;;;;;;;26.67;17.23;;;1.50;99.90;;;;;;4883189;29;20124;-94
2023/01/20 07:22:37;;;;;;;27.95;18.73;;;1.50;99.90;;;;;;4866379;29;20105;-93
2023/01/20 07:25:06;;;;;;;29.40;17.88;;;1.60;99.90;;;;;;4866178;29;20048;-94
2023/01/20 07:27:53;;;;;;;26.65;17.33;;;1.50;99.90;;;;;;4866929;29;20088;-94
2023/01/20 07:30:30;;;;;;;27.35;17.67;;;1.50;99.90;;;;;;4867436;29;20041;-94
2023/01/20 07:33:08;;;;;;;30.25;19.85;;;1.60;99.90;;;;;;4892292;29;20041;-94
2023/01/20 07:35:51;;;;;;;25.35;17.85;;;1.60;99.90;;;;;;4865626;29;20089;-94
2023/01/20 07:38:22;;;;;;;33.17;20.60;;;1.60;99.90;;;;;;4883347;29;20077;-93
2023/01/20 07:41:00;;;;;;;31.85;19.48;;;1.50;99.90;;;;;;4909546;23;20065;-94
2023/01/20 07:43:26;;;;;;;30.42;19.45;;;1.50;99.90;;;;;;4875783;29;20049;-94
2023/01/20 07:46:00;;;;;;;31.00;20.00;;;1.60;99.90;;;;;;4879395;29;20055;-93
2023/01/20 07:48:27;;;;;;;30.88;19.48;;;1.60;99.90;;;;;;4884419;29;20078;-93
2023/01/20 07:51:01;;;;;;;28.20;18.42;;;1.60;99.90;;;;;;4899288;29;20041;-93
2023/01/20 07:53:45;;;;;;;28.73;18.02;;;1.50;99.90;;;;;;4900115;29;20048;-93
2023/01/20 07:56:21;;;;;;;31.30;19.75;;;1.60;99.90;;;;;;4883536;29;20076;-92
2023/01/20 07:58:59;;;;;;;35.33;21.80;;;1.60;99.90;;;;;;4898258;29;20127;-93
2023/01/20 08:01:27;;;;;;;32.55;18.77;;;1.50;99.90;;;;;;4872370;29;20056;-95
2023/01/20 08:03:56;;;;;;;30.77;19.42;;;1.60;99.90;;;;;;4901829;29;20068;-95
2023/01/20 08:06:37;;;;;;;31.33;20.42;;;1.60;99.90;;;;;;4900807;29;20486;-93
2023/01/20 08:09:07;;;;;;;31.02;19.48;;;1.60;99.90;;;;;;4883854;29;20485;-92
2023/01/20 08:11:51;;;;;;;30.90;20.08;;;1.60;99.90;;;;;;4883901;29;20049;-93
2023/01/20 08:14:38;;;;;;;36.53;22.30;;;1.70;99.90;;;;;;4881392;29;20076;-93
2023/01/20 08:17:04;;;;;;;29.88;19.77;;;1.60;99.90;;;;;;4872063;29;20041;-93
2023/01/20 08:19:48;;;;;;;32.53;20.33;;;1.60;99.90;;;;;;4865117;29;20120;-93
2023/01/20 08:25:20;;;;;;;30.98;19.17;;;1.70;99.90;;;;;;4881358;29;20048;-93
2023/01/20 08:27:48;;;;;;;33.00;20.90;;;1.70;99.90;;;;;;4864576;29;20052;-92
2023/01/20 08:30:14;;;;;;;36.97;23.58;;;1.70;99.90;;;;;;4890117;23;20052;-93
2023/01/20 08:32:41;;;;;;;33.78;21.42;;;1.70;99.90;;;;;;4881027;29;20057;-93
2023/01/20 08:35:07;;;;;;;35.05;21.20;;;1.70;99.90;;;;;;4880541;29;20045;-91
2023/01/20 08:38:02;;;;;;;34.45;21.00;;;1.70;99.90;;;;;;4880587;29;20057;-92
2023/01/20 08:40:30;;;;;;;32.88;19.75;;;1.70;99.90;;;;;;4880762;29;20053;-92
2023/01/20 08:43:07;;;;;;;33.72;20.98;;;1.70;99.90;;;;;;4880634;29;20048;-92
2023/01/20 08:45:42;;;;;;;40.00;21.90;;;1.80;99.90;;;;;;4864080;29;20059;-92
2023/01/20 08:48:08;;;;;;;36.10;22.08;;;1.80;99.90;;;;;;4863036;29;20056;-92
2023/01/20 08:50:39;;;;;;;40.22;23.35;;;1.70;99.90;;;;;;4864035;29;20084;-93
2023/01/20 08:53:05;;;;;;;39.17;21.65;;;1.70;99.90;;;;;;4880236;29;20049;-91
2023/01/20 08:55:36;;;;;;;36.25;21.33;;;1.70;99.90;;;;;;4863749;29;20045;-92
2023/01/20 08:58:07;;;;;;;34.47;21.95;;;1.70;99.90;;;;;;4864777;29;20398;-92
2023/01/20 09:00:35;;;;;;;39.35;22.80;;;1.80;99.90;;;;;;4881297;29;20087;-93
2023/01/20 09:03:01;;;;;;;35.17;21.20;;;1.70;99.90;;;;;;4864410;29;20077;-95
2023/01/20 09:05:30;;;;;;;38.45;23.33;;;1.70;99.90;;;;;;4880657;29;20052;-91
2023/01/20 09:07:55;;;;;;;38.47;22.20;;;1.80;99.90;;;;;;4863099;29;20140;-90
2023/01/20 09:10:21;;;;;;;40.80;22.63;;;1.80;99.90;;;;;;4862537;29;20227;-90
2023/01/20 09:12:56;;;;;;;44.53;24.25;;;1.80;99.90;;;;;;4879517;29;20049;-90
2023/01/20 09:15:21;;;;;;;41.53;22.55;;;1.80;99.90;;;;;;4863256;29;20566;-92
2023/01/20 09:18:03;;;;;;;38.55;23.45;;;1.80;99.90;;;;;;4864127;29;20083;-91
2023/01/20 09:20:35;;;;;;;41.60;23.83;;;1.80;99.90;;;;;;4880090;29;20053;-91
2023/01/20 09:23:01;;;;;;;39.80;23.08;;;1.90;99.90;;;;;;4863639;29;20088;-89
2023/01/20 09:25:27;;;;;;;42.67;23.48;;;1.80;99.90;;;;;;4863857;29;20463;-93
2023/01/20 09:28:00;;;;;;;41.00;23.58;;;1.80;99.90;;;;;;4863935;29;20131;-93
2023/01/20 09:30:35;;;;;;;41.05;23.27;;;1.80;99.90;;;;;;4863885;29;20065;-92
2023/01/20 09:33:00;;;;;;;40.75;23.15;;;1.80;99.90;;;;;;4881028;29;20049;-92
2023/01/20 09:36:04;;;;;;;48.25;24.23;;;1.80;99.90;;;;;;4864668;29;20442;-93
2023/01/20 09:44:23;;;;;;;45.88;25.45;;;1.90;99.90;;;;;;4868140;29;20045;-92
2023/01/20 09:53:14;;;;;;;47.55;24.77;;;1.80;99.90;;;;;;4884424;29;20136;-92
2023/01/20 09:56:13;;;;;;;47.78;23.98;;;1.80;99.90;;;;;;4870019;29;20057;-94
2023/01/20 10:02:12;;;;;;;43.83;23.08;;;1.80;99.90;;;;;;4859829;29;20049;-93
2023/01/20 10:05:23;;;;;;;46.20;23.23;;;1.80;99.90;;;;;;4866329;29;20068;-95
2023/01/20 10:08:49;;;;;;;48.15;25.75;;;1.80;99.90;;;;;;4775823;30;20098;-94
2023/01/20 10:11:44;;;;;;;46.05;24.08;;;1.80;99.90;;;;;;4794579;29;20150;-92
2023/01/20 10:18:22;;;;;;;48.30;24.67;;;1.80;99.90;;;;;;4821909;29;20094;-94
2023/01/20 10:21:25;;;;;;;49.38;25.15;;;1.80;99.90;;;;;;4857408;29;20047;-92
2023/01/20 10:24:13;;;;;;;52.85;26.02;;;1.80;99.90;;;;;;4882615;29;20109;-91
2023/01/20 10:27:05;;;;;;;46.75;24.63;;;1.80;99.90;;;;;;4882051;29;20045;-91
2023/01/20 10:30:01;;;;;;;43.83;23.48;;;1.80;99.90;;;;;;4882522;29;20048;-92
2023/01/20 10:33:57;;;;;;;42.72;24.15;;;1.80;99.90;;;;;;4859141;29;20145;-91
2023/01/20 10:36:33;;;;;;;47.05;24.15;;;1.80;99.90;;;;;;4791139;29;20532;-92
2023/01/20 10:39:15;;;;;;;45.63;22.15;;;1.80;99.90;;;;;;4792676;29;20107;-92
2023/01/20 10:44:44;;;;;;;42.35;22.25;;;1.90;99.90;;;;;;4847296;29;20064;-92
2023/01/20 10:47:40;;;;;;;45.78;23.40;;;1.80;99.90;;;;;;4881475;29;20057;-91
2023/01/20 10:50:26;;;;;;;42.33;22.45;;;1.80;99.90;;;;;;4882397;29;20090;-91
2023/01/20 10:53:15;;;;;;;42.83;22.63;;;1.80;99.90;;;;;;4847625;29;20132;-93
2023/01/20 10:59:48;;;;;;;46.53;22.63;;;1.90;99.90;;;;;;4829092;29;20041;-92
2023/01/20 11:02:42;;;;;;;42.55;22.70;;;1.90;99.90;;;;;;4824145;29;20087;-93
2023/01/20 11:05:31;;;;;;;43.30;22.60;;;2.00;99.90;;;;;;4824712;29;20086;-92
2023/01/20 11:08:39;;;;;;;43.10;23.10;;;2.00;99.90;;;;;;4811539;29;20125;-92
2023/01/20 11:11:37;;;;;;;43.50;21.33;;;2.00;99.90;;;;;;4882676;23;20053;-93
2023/01/20 11:14:15;;;;;;;41.70;22.50;;;2.00;99.90;;;;;;4854196;29;20049;-93
2023/01/20 11:16:57;;;;;;;42.63;23.08;;;2.00;99.90;;;;;;4853268;29;20399;-93
2023/01/20 11:19:26;;;;;;;41.53;22.48;;;2.00;99.90;;;;;;4878392;29;20041;-92
2023/01/20 11:25:25;;;;;;;40.53;21.63;;;2.00;99.90;;;;;;4841848;29;20059;-93
2023/01/20 11:28:01;;;;;;;40.20;21.13;;;2.00;99.90;;;;;;4864817;29;20525;-94
2023/01/20 11:34:28;;;;;;;43.08;21.58;;;2.10;99.90;;;;;;4853518;29;20060;-94
2023/01/20 11:37:08;;;;;;;39.22;21.00;;;2.00;99.90;;;;;;4880724;29;20050;-94
2023/01/20 11:43:41;;;;;;;38.72;21.10;;;2.00;99.90;;;;;;4877808;29;20140;-92
2023/01/20 11:46:18;;;;;;;40.38;20.83;;;2.00;99.90;;;;;;4875407;29;20557;-91
2023/01/20 11:49:31;;;;;;;36.45;21.25;;;2.00;99.90;;;;;;4864084;29;20044;-92
2023/01/20 11:52:00;;;;;;;38.85;20.55;;;2.00;99.90;;;;;;4882037;29;20041;-91
2023/01/20 11:54:28;;;;;;;35.55;19.88;;;2.00;99.90;;;;;;4873988;29;20493;-91
2023/01/20 11:57:06;;;;;;;39.28;21.30;;;2.00;99.90;;;;;;4852432;29;20045;-92
2023/01/20 11:59:52;;;;;;;38.85;20.60;;;2.10;99.90;;;;;;4850455;29;20161;-92
2023/01/20 12:02:28;;;;;;;40.05;21.65;;;2.10;99.90;;;;;;4869623;29;20143;-92
2023/01/20 12:05:03;;;;;;;39.05;20.80;;;2.10;99.90;;;;;;4861302;29;20089;-93
2023/01/20 12:07:52;;;;;;;;;;;;;;;;;;;;;
2023/01/20 12:14:24;;;;;;;38.88;21.17;;;2.10;99.90;;;;;;4789094;29;20125;-92
2023/01/20 12:21:25;;;;;;;41.15;21.00;;;2.00;99.90;;;;;;4785318;29;20053;-92
2023/01/20 12:30:55;;;;;;;37.17;20.35;;;2.00;99.90;;;;;;4786847;29;20139;-92
2023/01/20 12:34:16;;;;;;;39.40;20.58;;;2.10;99.90;;;;;;4850475;29;20124;-91
2023/01/20 12:37:11;;;;;;;36.85;20.58;;;2.10;99.90;;;;;;4842018;29;20135;-93
2023/01/20 12:40:03;;;;;;;42.72;22.75;;;2.10;99.90;;;;;;4857518;29;20044;-92
2023/01/20 12:42:35;;;;;;;46.60;23.17;;;2.10;99.90;;;;;;4865272;29;20057;-92
2023/01/20 12:49:09;;;;;;;40.00;21.42;;;2.10;99.90;;;;;;4808361;29;20053;-93
2023/01/20 12:54:57;;;;;;;40.63;21.08;;;2.20;99.90;;;;;;4851497;29;20578;-94
2023/01/20 13:00:27;;;;;;;38.03;19.42;;;2.10;99.90;;;;;;4896545;23;20507;-92
2023/01/20 13:03:23;;;;;;;35.40;20.52;;;2.10;99.90;;;;;;4856054;29;20053;-91
2023/01/20 13:06:23;;;;;;;35.03;20.27;;;2.20;99.90;;;;;;4852909;29;20049;-92
2023/01/20 13:09:13;;;;;;;37.97;20.65;;;2.10;99.90;;;;;;4879440;29;20124;-92
2023/01/20 13:15:29;;;;;;;39.40;20.92;;;2.10;99.90;;;;;;4855987;29;20144;-91
2023/01/20 13:18:35;;;;;;;38.42;20.70;;;2.10;99.90;;;;;;4857287;29;20602;-92
2023/01/20 13:21:11;;;;;;;33.40;19.20;;;2.10;99.90;;;;;;4859970;29;20111;-93
2023/01/20 13:23:37;;;;;;;40.22;20.83;;;2.10;99.90;;;;;;4875504;29;20041;-91
2023/01/20 13:26:04;;;;;;;37.85;21.60;;;2.10;99.90;;;;;;4862543;29;20576;-92
2023/01/20 13:28:31;;;;;;;39.72;21.88;;;2.10;99.90;;;;;;4879134;29;20446;-91
2023/01/20 13:31:16;;;;;;;35.63;21.45;;;2.10;99.90;;;;;;4879185;29;20041;-92
2023/01/20 13:34:11;;;;;;;37.45;20.70;;;2.10;99.90;;;;;;4862795;29;20053;-92
2023/01/20 13:36:37;;;;;;;36.25;20.00;;;2.10;99.90;;;;;;4843902;29;20057;-92
2023/01/20 13:39:39;;;;;;;36.88;21.92;;;2.20;99.90;;;;;;4861234;29;20049;-91
2023/01/20 13:42:29;;;;;;;37.88;21.80;;;2.20;99.90;;;;;;4849390;29;20094;-92
2023/01/20 13:45:13;;;;;;;35.97;20.00;;;2.20;99.90;;;;;;4862697;29;20053;-92
2023/01/20 13:50:40;;;;;;;37.35;20.42;;;2.10;99.90;;;;;;4876586;29;19912;-94
2023/01/20 13:53:20;;;;;;;36.45;20.50;;;2.20;99.90;;;;;;4861168;29;20045;-93
2023/01/20 13:56:36;;;;;;;38.80;21.25;;;2.20;99.90;;;;;;4826807;29;20053;-94
2023/01/20 13:59:29;;;;;;;34.88;19.85;;;2.30;99.90;;;;;;4826886;29;20563;-94
2023/01/20 14:02:30;;;;;;;36.55;19.85;;;2.30;99.90;;;;;;4787556;30;20075;-93
2023/01/20 14:08:15;;;;;;;34.67;19.65;;;2.40;99.90;;;;;;4861224;29;20057;-94
2023/01/20 14:11:33;;;;;;;35.92;20.02;;;2.30;99.90;;;;;;4862130;29;20060;-94
2023/01/20 14:14:16;;;;;;;32.58;19.35;;;2.40;99.90;;;;;;4845430;29;20057;-95
2023/01/20 14:17:02;;;;;;;36.25;19.42;;;2.30;99.90;;;;;;4846371;29;20094;-94
2023/01/20 14:19:39;;;;;;;36.53;20.67;;;2.30;99.90;;;;;;4846497;29;20080;-94
2023/01/20 14:22:35;;;;;;;34.28;18.95;;;2.30;99.90;;;;;;4845861;29;20050;-94
2023/01/20 14:25:01;;;;;;;34.15;19.20;;;2.30;99.90;;;;;;4859532;29;20132;-93
2023/01/20 14:27:34;;;;;;;34.28;20.60;;;2.40;99.90;;;;;;4848142;29;20137;-95
2023/01/20 14:30:21;;;;;;;35.25;19.77;;;2.40;99.90;;;;;;4865026;29;20059;-94
2023/01/20 14:32:53;;;;;;;33.45;19.63;;;2.30;99.90;;;;;;4847873;29;20049;-96
2023/01/20 14:35:47;;;;;;;33.88;19.90;;;2.30;99.90;;;;;;4864968;29;20395;-94
2023/01/20 14:38:39;;;;;;;33.50;19.85;;;2.40;99.90;;;;;;4799848;29;20195;-94
2023/01/20 14:45:31;;;;;;;38.00;20.63;;;2.40;99.90;;;;;;4864523;29;20407;-94
2023/01/20 14:48:08;;;;;;;36.42;19.67;;;2.40;99.90;;;;;;4863578;29;20120;-92
2023/01/20 14:50:37;;;;;;;33.35;19.38;;;2.50;99.90;;;;;;4893752;29;20045;-96
2023/01/20 14:53:10;;;;;;;32.35;19.60;;;2.40;99.90;;;;;;4895691;29;20053;-95
2023/01/20 14:58:57;;;;;;;35.10;19.50;;;2.50;99.90;;;;;;4873714;23;20057;-95
2023/01/20 15:04:36;;;;;;;35.05;19.45;;;2.50;99.90;;;;;;4873291;23;20507;-95
2023/01/20 15:07:05;;;;;;;33.65;19.70;;;2.50;99.90;;;;;;4864317;29;20045;-94
2023/01/20 15:10:05;;;;;;;34.88;20.10;;;2.50;99.90;;;;;;4848075;29;20114;-94
2023/01/20 15:12:46;;;;;;;34.45;19.60;;;2.50;99.90;;;;;;4831952;29;20058;-94
2023/01/20 15:15:20;;;;;;;32.30;19.27;;;2.50;99.90;;;;;;4858624;23;20518;-95